heartbowsmakeup.com alexa rank chart, heartbowsmakeup.com alexa rank daily changes

heartbowsmakeup.com alexa rank chart, heartbowsmakeup.com alexa rank daily changes

heartbowsmakeup.com
Actual rank:
591 974

RANK HISTORY

Date Rank Diff
2017/07/25 591 974 +2 703
2017/07/24 589 271 -18 322
2017/07/23 607 593 +643
2017/07/22 606 950 +19 967
2017/07/21 586 983 +14 988
2017/07/20 571 995 +8 375
2017/07/19 563 620 -11 974
2017/07/18 575 594 -3 948
2017/07/17 579 542 +4 994
2017/07/16 574 548 -13 371
2017/07/15 587 919 +24 623
2017/07/14 563 296 -4 810
2017/07/13 568 106 +51
2017/07/12 568 055 +8 348
2017/07/11 559 707 +6 794
2017/07/10 552 913 -13 761
2017/07/09 566 674 +3 216
2017/07/08 563 458 +16 525
2017/07/07 546 933 +590
2017/07/06 546 343 -1 178
2017/07/05 547 521 +8 842
2017/07/04 538 679 -156
2017/07/03 538 835 +4 934
2017/07/02 533 901 -5 007
2017/07/01 538 908 -8 653
2017/06/30 547 561 +16 604
2017/06/29 530 957 +3 837
2017/06/28 527 120 +1 615
2017/06/27 525 505 -708
2017/06/26 526 213 -7 825
2017/06/25 534 038 +6 808
2017/06/24 527 230 +18 294
2017/06/23 508 936 -3 102
2017/06/22 512 038 -6 595
2017/06/21 518 633 -12 832
2017/06/20 531 465 +4 441
2017/06/19 527 024 +18 012
2017/06/18 509 012 +11 704
2017/06/17 497 308 -12 803
2017/06/16 510 111 +17 703
2017/06/15 492 408 -8 176
2017/06/14 500 584 +21 494
2017/06/13 479 090 -8 302
2017/06/12 487 392 -7 639
2017/06/11 495 031 +3 475
2017/06/10 491 556 +20 560
2017/06/09 470 996 +1 635
2017/06/08 469 361 +41 027
2017/06/07 428 334 -3 445
2017/06/06 431 779 +11 161
2017/06/05 420 618 +2 843
2017/06/04 417 775 -3 747
2017/06/03 421 522 +1 877
2017/06/02 419 645 +7 556
2017/06/01 412 089 +6 240
2017/05/31 405 849 +8 654
2017/05/30 397 195 -8 240
2017/05/29 405 435 +4 367
2017/05/28 401 068 +6 492
2017/05/27 394 576 +7 808
2017/05/26 386 768

WIDGET FOR YOUR SITE

DOMAINS WITH THE NEAREST RANK

Domain Rank
gesetzliche-kuendigungsfrist.info 591 969
bestlesbianpornpics.com 591 970
kinetic4health.co.uk 591 971
airconco.com 591 972
oncologynutrition.org 591 973
heartbowsmakeup.com 591 974
infodolomiti.it 591 975
thepost.hu 591 976
cemporcentoskate.uol.com.br 591 977
komsan.top 591 978
detstoreeplet.blogg.no 591 979

DOMAINS WITH THE NEAREST RANK BY TLD .com

Domain Rank
10so6.com 591 964
docsports.com 591 965
snappygoat.com 591 967
bestlesbianpornpics.com 591 970
airconco.com 591 972
heartbowsmakeup.com 591 974
aspfree.com 591 982
smoker-cooking.com 591 985
rxtubes.com 591 988
mariehaynes.com 591 993
betaworks.com 591 996